Negotiator — WDD3055 — position and weather

sailwx.info

Track history (hours):
 
Tides and Currents Weather Stations Pressure Air Temp Water Temp Dewpoint Dewpoint Depression Visibility Wind Speed Wind Dir Waves Ship Positions

Negotiator

Owner: T&T FISHERIES LLC, CAPE MAY COURT US, NJ. More information available from US FCC via Universal Licensing System and Coast Guard Vessel Documentation Center.

Last reported at 2013-Sep-05 11:30 UTC. Time now 2014-Oct-24 13:32 UTC.
Position N 39°37' W 074°00'.
Warning: this ship's position is years out of date!

Date/timePositionNaut miles runAvg speedWind from/ knotsBaromVisibWave heightAir tempDewpointWater temp
2013-Sep-05 11:30N 39°37' W 074°00'8 8.1
2013-Sep-05 10:33N 39°44' W 073°56'26 8.4
2013-Sep-05 07:32N 40°01' W 073°31'34 8.6
2013-Sep-05 03:32N 40°24' W 072°57'8 8.7
2013-Sep-05 02:33N 40°29' W 072°48'8 8.3
2013-Sep-05 01:34N 40°33' W 072°39'8 8.2
2013-Sep-05 00:32N 40°38' W 072°30'8 8.1
2013-Sep-04 23:34N 40°42' W 072°21'8 8.2
2013-Sep-04 22:33N 40°46' W 072°12'8 8.2
2013-Sep-04 21:33N 40°50' W 072°02'8 8.4
2013-Sep-04 20:33N 40°55' W 071°53'9 9.2
2013-Sep-04 19:32N 41°00' W 071°43'9 8.9
2013-Sep-04 18:33N 41°06' W 071°34'9 8.9
2013-Sep-04 17:33N 41°14' W 071°28'9 8.5
2013-Sep-04 16:33N 41°22' W 071°25'8 7.9
2013-Sep-04 15:32N 41°29' W 071°19'0 0.1
2013-Sep-04 13:09N 41°29' W 071°19'0 0.0
2013-Sep-04 12:30N 41°29' W 071°19'0 0.0
2013-Sep-04 11:33N 41°29' W 071°19'0 0.0
2013-Sep-04 10:33N 41°29' W 071°19'0 0.0
2013-Sep-04 09:33N 41°29' W 071°19'0 0.0
2013-Sep-04 08:21N 41°29' W 071°19'0 0.0
2013-Sep-04 07:27N 41°29' W 071°19'0 0.3
2013-Sep-04 06:34N 41°29' W 071°19'4 4.4
2013-Sep-04 05:34N 41°25' W 071°21'8 7.7
2013-Sep-04 04:34N 41°24' W 071°10'8 8.2
2013-Sep-04 03:33N 41°23' W 070°60'8 8.4
2013-Sep-04 02:34N 41°25' W 070°49'11 7.7
2013-Sep-04 01:07N 41°30' W 070°36'60 1.3
2013-Sep-02 04:10N 41°20' W 069°16'3 0.7
2013-Sep-02 00:26N 41°18' W 069°14'4 0.2
2013-Sep-01 04:22N 41°21' W 069°16'4 0.3
2013-Aug-31 12:27N 41°18' W 069°14'4 1.2
2013-Aug-31 09:09N 41°21' W 069°16'93 2.3
2013-Aug-29 17:18N 41°29' W 071°20'1 0.0
2013-Aug-28 19:18N 41°29' W 071°19'0 0.0
2013-Aug-28 18:13N 41°29' W 071°19'0 0.0
2013-Aug-27 11:14N 41°29' W 071°19'4 2.4
2013-Aug-27 09:25N 41°25' W 071°22'2 2.4
2013-Aug-27 08:33N 41°25' W 071°20'7 7.0
2013-Aug-27 07:31N 41°24' W 071°10'  
Track history (hours):
 
Tides and Currents Weather Stations Pressure Air Temp Water Temp Dewpoint Dewpoint Depression Visibility Wind Speed Wind Dir Waves Ship Positions

Negotiator

Owner: T&T FISHERIES LLC, CAPE MAY COURT US, NJ. More information available from US FCC via Universal Licensing System and Coast Guard Vessel Documentation Center.

Last reported at 2013-Sep-05 11:30 UTC. Time now 2014-Oct-24 13:32 UTC.
Position N 39°37' W 074°00'.
Warning: this ship's position is years out of date!

Date/timePositionNaut miles runAvg speedWind from/ knotsBaromVisibWave heightAir tempDewpointWater temp
2013-Sep-05 11:30N 39°37' W 074°00'8 8.1
2013-Sep-05 10:33N 39°44' W 073°56'26 8.4
2013-Sep-05 07:32N 40°01' W 073°31'34 8.6
2013-Sep-05 03:32N 40°24' W 072°57'8 8.7
2013-Sep-05 02:33N 40°29' W 072°48'8 8.3
2013-Sep-05 01:34N 40°33' W 072°39'8 8.2
2013-Sep-05 00:32N 40°38' W 072°30'8 8.1
2013-Sep-04 23:34N 40°42' W 072°21'8 8.2
2013-Sep-04 22:33N 40°46' W 072°12'8 8.2
2013-Sep-04 21:33N 40°50' W 072°02'8 8.4
2013-Sep-04 20:33N 40°55' W 071°53'9 9.2
2013-Sep-04 19:32N 41°00' W 071°43'9 8.9
2013-Sep-04 18:33N 41°06' W 071°34'9 8.9
2013-Sep-04 17:33N 41°14' W 071°28'9 8.5
2013-Sep-04 16:33N 41°22' W 071°25'8 7.9
2013-Sep-04 15:32N 41°29' W 071°19'0 0.1
2013-Sep-04 13:09N 41°29' W 071°19'0 0.0
2013-Sep-04 12:30N 41°29' W 071°19'0 0.0
2013-Sep-04 11:33N 41°29' W 071°19'0 0.0
2013-Sep-04 10:33N 41°29' W 071°19'0 0.0
2013-Sep-04 09:33N 41°29' W 071°19'0 0.0
2013-Sep-04 08:21N 41°29' W 071°19'0 0.0
2013-Sep-04 07:27N 41°29' W 071°19'0 0.3
2013-Sep-04 06:34N 41°29' W 071°19'4 4.4
2013-Sep-04 05:34N 41°25' W 071°21'8 7.7
2013-Sep-04 04:34N 41°24' W 071°10'8 8.2
2013-Sep-04 03:33N 41°23' W 070°60'8 8.4
2013-Sep-04 02:34N 41°25' W 070°49'11 7.7
2013-Sep-04 01:07N 41°30' W 070°36'60 1.3
2013-Sep-02 04:10N 41°20' W 069°16'3 0.7
2013-Sep-02 00:26N 41°18' W 069°14'4 0.2
2013-Sep-01 04:22N 41°21' W 069°16'4 0.3
2013-Aug-31 12:27N 41°18' W 069°14'4 1.2
2013-Aug-31 09:09N 41°21' W 069°16'93 2.3
2013-Aug-29 17:18N 41°29' W 071°20'1 0.0
2013-Aug-28 19:18N 41°29' W 071°19'0 0.0
2013-Aug-28 18:13N 41°29' W 071°19'0 0.0
2013-Aug-27 11:14N 41°29' W 071°19'4 2.4
2013-Aug-27 09:25N 41°25' W 071°22'2 2.4
2013-Aug-27 08:33N 41°25' W 071°20'7 7.0
2013-Aug-27 07:31N 41°24' W 071°10'  

Dump ship's entire track history